createdAt,value
2019-02-18T00:00:40.032Z,76.50
2019-02-18T00:03:08.746Z,76.40
2019-02-18T00:05:37.174Z,76.80
2019-02-18T00:08:05.761Z,76.90
2019-02-18T00:10:34.396Z,77.40
2019-02-18T00:13:02.850Z,77.60
2019-02-18T00:15:31.273Z,77.80
2019-02-18T00:17:59.691Z,78.10
2019-02-18T00:20:28.110Z,78.10
2019-02-18T00:22:56.528Z,78.50
2019-02-18T00:25:25.166Z,78.70
2019-02-18T00:27:53.871Z,78.90
2019-02-18T00:30:22.290Z,79.10
2019-02-18T00:32:50.919Z,79.40
2019-02-18T00:35:19.382Z,79.50
2019-02-18T00:37:47.799Z,79.60
2019-02-18T00:40:16.221Z,79.60
2019-02-18T00:42:44.871Z,79.70
2019-02-18T00:45:13.729Z,80.00
2019-02-18T00:47:42.417Z,80.10
2019-02-18T00:50:11.937Z,80.70
2019-02-18T00:52:40.611Z,80.70
2019-02-18T00:55:09.908Z,80.90
2019-02-18T00:57:38.323Z,81.30
2019-02-18T01:00:15.567Z,81.60
2019-02-18T01:02:43.977Z,81.80
2019-02-18T01:05:12.650Z,81.80
2019-02-18T01:07:41.418Z,81.70
2019-02-18T01:10:11.929Z,81.90
2019-02-18T01:12:40.333Z,82.00
2019-02-18T01:15:11.851Z,82.20
2019-02-18T01:17:40.262Z,82.60
2019-02-18T01:20:11.879Z,82.90
2019-02-18T01:22:40.298Z,82.90
2019-02-18T01:25:11.527Z,83.20
2019-02-18T01:27:39.928Z,83.10
2019-02-18T01:30:12.158Z,82.90
2019-02-18T01:32:40.560Z,82.90
2019-02-18T01:35:09.125Z,82.50
2019-02-18T01:37:45.210Z,82.50
2019-02-18T01:40:15.252Z,82.30
2019-02-18T01:42:43.669Z,82.30
2019-02-18T01:45:15.069Z,82.30
2019-02-18T01:47:43.503Z,82.30
2019-02-18T01:50:13.900Z,82.00
2019-02-18T01:52:42.325Z,81.90
2019-02-18T01:55:12.423Z,81.90
2019-02-18T01:57:41.093Z,81.80
2019-02-18T02:00:14.704Z,81.50
2019-02-18T02:02:43.164Z,81.70
2019-02-18T02:05:14.586Z,81.80
2019-02-18T02:07:43.078Z,81.80
2019-02-18T02:10:13.520Z,81.60
2019-02-18T02:12:41.940Z,81.60
2019-02-18T02:15:13.434Z,81.50
2019-02-18T02:17:41.856Z,81.60
2019-02-18T02:20:10.400Z,81.80
2019-02-18T02:22:38.826Z,82.10
2019-02-18T02:25:07.318Z,82.30
2019-02-18T02:27:35.967Z,82.60
2019-02-18T02:30:06.831Z,82.50
2019-02-18T02:32:35.249Z,82.30
2019-02-18T02:35:03.797Z,82.20
2019-02-18T02:37:32.463Z,82.30
2019-02-18T02:40:01.129Z,82.40
2019-02-18T02:42:29.765Z,82.50
2019-02-18T02:44:58.217Z,82.50
2019-02-18T02:47:26.629Z,82.50
2019-02-18T02:49:55.043Z,82.60
2019-02-18T02:52:23.463Z,82.60
2019-02-18T02:54:52.125Z,82.70
2019-02-18T02:57:20.553Z,82.80
2019-02-18T02:59:48.961Z,82.90
2019-02-18T03:02:17.386Z,82.60
2019-02-18T03:04:46.422Z,82.20
2019-02-18T03:07:14.847Z,82.20
2019-02-18T03:09:43.253Z,81.90
2019-02-18T03:12:11.682Z,81.80
2019-02-18T03:14:40.089Z,82.00
2019-02-18T03:17:08.840Z,82.20
2019-02-18T03:19:37.483Z,82.40
2019-02-18T03:22:05.947Z,82.50
2019-02-18T03:24:34.605Z,83.10
2019-02-18T03:27:03.026Z,83.40
2019-02-18T03:29:42.730Z,83.60
2019-02-18T03:32:11.151Z,84.10
2019-02-18T03:34:39.896Z,83.90
2019-02-18T03:37:08.306Z,84.20
2019-02-18T03:39:36.731Z,84.40
2019-02-18T03:42:05.384Z,84.40
2019-02-18T03:44:33.802Z,84.70
2019-02-18T03:47:02.222Z,84.50
2019-02-18T03:49:30.852Z,84.80
2019-02-18T03:51:59.314Z,84.70
2019-02-18T03:54:27.730Z,85.30
2019-02-18T03:56:56.144Z,84.70
2019-02-18T03:59:24.565Z,85.10
2019-02-18T04:01:53.107Z,85.70
2019-02-18T04:04:21.761Z,85.80
2019-02-18T04:06:50.215Z,85.60
2019-02-18T04:09:18.638Z,85.70
2019-02-18T04:11:47.054Z,85.70
2019-02-18T04:14:15.464Z,85.90
2019-02-18T04:16:44.129Z,85.90
2019-02-18T04:19:12.770Z,86.60
2019-02-18T04:21:41.209Z,87.00
2019-02-18T04:24:09.630Z,87.70
2019-02-18T04:26:39.678Z,87.50
2019-02-18T04:29:08.102Z,87.20
2019-02-18T04:31:36.755Z,87.20
2019-02-18T04:34:05.172Z,87.50
2019-02-18T04:36:33.595Z,87.70
2019-02-18T04:39:02.013Z,87.70
2019-02-18T04:41:30.693Z,87.80
2019-02-18T04:43:59.105Z,87.90
2019-02-18T04:46:27.768Z,88.20
2019-02-18T04:48:56.198Z,88.20
2019-02-18T04:51:24.606Z,88.20
2019-02-18T04:53:53.019Z,88.40
2019-02-18T04:56:21.701Z,89.00
2019-02-18T04:58:50.127Z,89.30
2019-02-18T05:01:18.766Z,89.80
2019-02-18T05:03:47.219Z,90.00
2019-02-18T05:06:15.642Z,89.80
2019-02-18T05:08:44.060Z,89.60
2019-02-18T05:11:12.477Z,89.70
2019-02-18T05:13:40.890Z,89.80
2019-02-18T05:16:09.569Z,90.00
2019-02-18T05:18:37.982Z,90.00
2019-02-18T05:21:06.401Z,90.10
2019-02-18T05:23:35.072Z,89.70
2019-02-18T05:26:03.748Z,90.00
2019-02-18T05:28:32.154Z,90.10
2019-02-18T05:31:00.578Z,90.10
2019-02-18T05:33:29.251Z,90.30
2019-02-18T05:35:57.671Z,90.40
2019-02-18T05:38:26.079Z,90.50
2019-02-18T05:40:54.502Z,90.70
2019-02-18T05:43:22.936Z,91.00
2019-02-18T05:45:51.422Z,91.00
2019-02-18T05:48:20.086Z,90.90
2019-02-18T05:50:48.733Z,90.90
2019-02-18T05:53:17.178Z,91.00
2019-02-18T05:55:45.607Z,91.00
2019-02-18T05:58:14.022Z,91.30
2019-02-18T06:00:42.455Z,91.00
2019-02-18T06:03:10.868Z,91.00
2019-02-18T06:05:39.508Z,91.10
2019-02-18T06:08:07.961Z,91.20
2019-02-18T06:10:36.452Z,91.30
2019-02-18T06:13:05.110Z,91.50
2019-02-18T06:15:33.544Z,91.70
2019-02-18T06:18:01.953Z,91.50
2019-02-18T06:20:30.640Z,91.50
2019-02-18T06:22:59.311Z,91.40
2019-02-18T06:25:27.729Z,91.50
2019-02-18T06:27:56.396Z,91.60
2019-02-18T06:30:24.807Z,91.60
2019-02-18T06:32:53.453Z,91.60
2019-02-18T06:35:21.909Z,91.70
2019-02-18T06:37:50.629Z,91.70
2019-02-18T06:40:19.095Z,91.70
2019-02-18T06:42:47.514Z,91.90
2019-02-18T06:45:33.977Z,91.90
2019-02-18T06:48:07.220Z,91.90
2019-02-18T06:50:35.885Z,91.80
2019-02-18T06:53:04.680Z,91.80
2019-02-18T06:55:33.630Z,91.80
2019-02-18T06:58:09.406Z,91.80
2019-02-18T07:00:39.471Z,91.80
2019-02-18T07:03:15.314Z,91.90
2019-02-18T07:05:45.382Z,92.00
2019-02-18T07:08:15.433Z,91.90
2019-02-18T07:10:45.502Z,91.80
2019-02-18T07:13:13.913Z,91.80
2019-02-18T07:15:42.387Z,91.70
2019-02-18T07:18:10.822Z,91.70
2019-02-18T07:20:39.479Z,91.60
2019-02-18T07:23:08.147Z,91.60
2019-02-18T07:25:36.561Z,91.50
2019-02-18T07:28:04.994Z,91.50
2019-02-18T07:30:33.401Z,91.40
2019-02-18T07:33:01.826Z,91.20
2019-02-18T07:35:30.490Z,91.10
2019-02-18T07:37:59.144Z,91.10
2019-02-18T07:40:27.818Z,91.00
2019-02-18T07:42:56.241Z,90.80
2019-02-18T07:45:24.919Z,90.70
2019-02-18T07:47:53.329Z,90.70
2019-02-18T07:50:21.743Z,90.50
2019-02-18T07:52:50.385Z,90.40
2019-02-18T07:55:19.094Z,90.20
2019-02-18T07:57:47.511Z,90.00
2019-02-18T08:00:15.925Z,89.50
2019-02-18T08:02:44.608Z,88.70
2019-02-18T08:05:13.275Z,88.00
2019-02-18T08:07:41.703Z,87.10
2019-02-18T08:10:12.342Z,86.20
2019-02-18T08:12:40.958Z,85.00
2019-02-18T08:15:10.517Z,84.00
2019-02-18T08:17:38.982Z,82.80
2019-02-18T08:20:10.111Z,82.00
2019-02-18T08:22:38.523Z,81.00
2019-02-18T08:25:13.737Z,78.80
2019-02-18T08:27:42.414Z,77.50
2019-02-18T08:30:16.762Z,76.50
2019-02-18T08:32:45.182Z,73.20
2019-02-18T08:35:13.882Z,67.90
2019-02-18T08:37:42.548Z,65.50
2019-02-18T08:40:11.477Z,62.70
2019-02-18T08:42:40.235Z,59.60
2019-02-18T08:45:12.947Z,55.80
2019-02-18T08:47:41.577Z,51.90
2019-02-18T08:50:11.842Z,49.80
2019-02-18T08:52:40.481Z,45.60
2019-02-18T08:55:11.197Z,40.80
2019-02-18T08:57:39.623Z,37.60
2019-02-18T09:00:16.267Z,35.30
2019-02-18T09:02:44.679Z,29.40
2019-02-18T09:05:13.221Z,28.30
2019-02-18T09:07:41.768Z,26.50
2019-02-18T09:10:12.444Z,25.80
2019-02-18T09:12:41.111Z,23.00
2019-02-18T09:15:10.978Z,21.00
2019-02-18T09:17:39.398Z,16.50
2019-02-18T09:20:09.467Z,12.30
2019-02-18T09:22:51.543Z,5.00
2019-02-18T09:25:21.611Z,1.00
2019-02-18T09:27:51.101Z,1.00
2019-02-18T09:30:21.587Z,1.00
2019-02-18T09:32:50.006Z,1.00
2019-02-18T09:35:18.431Z,1.00
2019-02-18T09:37:46.962Z,1.00
2019-02-18T09:40:15.471Z,1.00
2019-02-18T09:42:43.874Z,1.00
2019-02-18T09:45:14.903Z,1.00
2019-02-18T09:47:43.607Z,1.00
2019-02-18T09:50:12.313Z,1.00
2019-02-18T09:52:40.801Z,1.00
2019-02-18T09:55:10.963Z,1.00
2019-02-18T09:57:39.371Z,1.00
2019-02-18T10:00:12.271Z,1.00
2019-02-18T10:02:40.700Z,1.00
2019-02-18T10:05:09.815Z,1.00
2019-02-18T10:07:38.248Z,1.00
2019-02-18T10:10:09.216Z,1.00
2019-02-18T10:12:37.879Z,1.00
2019-02-18T10:15:09.539Z,1.00
2019-02-18T10:17:38.249Z,1.00
2019-02-18T10:20:11.612Z,1.00
2019-02-18T10:22:40.032Z,1.00
2019-02-18T10:25:11.097Z,1.00
2019-02-18T10:27:39.515Z,1.00
2019-02-18T10:30:10.675Z,1.00
2019-02-18T10:32:39.122Z,1.00
2019-02-18T10:35:10.751Z,1.00
2019-02-18T10:37:39.268Z,1.70
2019-02-18T10:40:09.828Z,1.70
2019-02-18T10:42:38.241Z,1.20
2019-02-18T10:45:13.170Z,1.00
2019-02-18T10:47:41.646Z,1.00
2019-02-18T10:50:11.507Z,1.30
2019-02-18T10:52:39.998Z,1.00
2019-02-18T10:55:10.700Z,1.00
2019-02-18T10:57:39.722Z,1.00
2019-02-18T11:00:14.646Z,1.00
2019-02-18T11:02:43.071Z,1.00
2019-02-18T11:05:11.630Z,1.00
2019-02-18T11:07:40.117Z,1.00
2019-02-18T11:10:11.576Z,1.00
2019-02-18T11:12:40.258Z,1.00
2019-02-18T11:15:11.015Z,1.00
2019-02-18T11:17:39.507Z,1.00
2019-02-18T11:20:10.757Z,1.00
2019-02-18T11:22:39.332Z,1.00
2019-02-18T11:25:13.351Z,1.00
2019-02-18T11:27:42.063Z,1.00
2019-02-18T11:30:17.832Z,1.00
2019-02-18T11:47:39.396Z,1.00
2019-02-18T11:50:10.259Z,1.00
2019-02-18T11:52:38.977Z,1.00
2019-02-18T12:44:37.189Z,1.00
2019-02-18T12:47:06.897Z,1.00
2019-02-18T12:49:35.427Z,1.00
2019-02-18T12:52:04.026Z,1.00
2019-02-18T12:54:32.717Z,1.00
2019-02-18T12:57:01.231Z,1.00
2019-02-18T12:59:30.116Z,1.00
2019-02-18T13:01:58.988Z,1.00
2019-02-18T13:04:27.492Z,1.00
2019-02-18T13:06:56.211Z,1.00
2019-02-18T13:09:24.627Z,1.00
2019-02-18T13:11:58.913Z,1.00
2019-02-18T13:14:23.287Z,1.00
2019-02-18T13:16:52.037Z,1.00
2019-02-18T13:19:20.497Z,1.00
2019-02-18T13:24:17.508Z,1.00
2019-02-18T13:26:45.929Z,1.00
2019-02-18T13:29:14.355Z,1.00
2019-02-18T13:31:42.850Z,1.00
2019-02-18T13:34:11.286Z,1.00
2019-02-18T13:36:41.587Z,1.00
2019-02-18T13:39:10.087Z,1.00
2019-02-18T13:41:38.778Z,1.00
2019-02-18T13:44:07.205Z,1.00
2019-02-18T13:46:35.854Z,1.00
2019-02-18T13:49:04.330Z,1.00
2019-02-18T13:51:33.012Z,1.00
2019-02-18T13:54:01.530Z,1.00
2019-02-18T13:56:30.585Z,1.00
2019-02-18T13:58:59.019Z,1.00
2019-02-18T14:01:27.615Z,1.00
2019-02-18T14:03:56.060Z,1.00
2019-02-18T14:06:24.475Z,1.00
2019-02-18T14:08:53.180Z,1.00
2019-02-18T14:11:21.901Z,1.00
2019-02-18T14:13:50.445Z,1.00
2019-02-18T14:16:19.147Z,1.00
2019-02-18T14:18:47.649Z,1.00
2019-02-18T14:21:16.105Z,1.00
2019-02-18T14:23:44.568Z,1.00
2019-02-18T14:26:13.222Z,1.00
2019-02-18T14:28:41.859Z,1.00
2019-02-18T14:31:10.280Z,1.00
2019-02-18T14:33:38.774Z,1.00
2019-02-18T14:36:07.257Z,1.00
2019-02-18T14:38:35.695Z,1.00
2019-02-18T14:41:04.111Z,1.00
2019-02-18T14:43:32.962Z,1.00
2019-02-18T14:46:01.379Z,1.00
2019-02-18T14:48:29.811Z,1.00
2019-02-18T14:50:58.528Z,1.00
2019-02-18T14:53:26.987Z,1.00
2019-02-18T14:55:55.766Z,1.00
2019-02-18T14:58:24.254Z,1.00
2019-02-18T15:00:53.104Z,1.00
2019-02-18T15:03:21.674Z,1.00
2019-02-18T15:05:51.622Z,1.00
2019-02-18T15:08:20.222Z,1.00
2019-02-18T15:10:48.631Z,1.00
2019-02-18T15:13:17.054Z,1.00
2019-02-18T15:15:47.801Z,1.00
2019-02-18T15:18:16.513Z,1.00
2019-02-18T15:20:45.042Z,1.00
2019-02-18T15:23:13.569Z,1.00
2019-02-18T15:25:42.043Z,1.00
2019-02-18T15:28:10.455Z,1.00
2019-02-18T15:30:39.154Z,1.00
2019-02-18T15:33:07.581Z,1.00
2019-02-18T15:35:36.020Z,3.10
2019-02-18T15:50:27.336Z,1.00
2019-02-18T15:52:55.794Z,1.00
2019-02-18T15:55:24.231Z,1.00
2019-02-18T15:57:52.657Z,1.00
2019-02-18T16:00:24.279Z,1.00
2019-02-18T16:02:52.697Z,1.00
2019-02-18T16:05:21.294Z,1.00
2019-02-18T16:07:49.960Z,1.00
2019-02-18T16:10:18.393Z,1.00
2019-02-18T16:12:50.973Z,1.00
2019-02-18T16:15:17.054Z,1.40
2019-02-18T16:17:46.005Z,1.80
2019-02-18T16:20:14.876Z,2.50
2019-02-18T16:22:43.350Z,3.60
2019-02-18T16:25:17.512Z,4.00
2019-02-18T16:27:45.940Z,4.60
2019-02-18T16:30:15.777Z,5.30
2019-02-18T16:32:44.475Z,5.80
2019-02-18T16:35:13.226Z,6.20
2019-02-18T16:37:42.029Z,6.50
2019-02-18T16:40:16.113Z,7.20
2019-02-18T16:42:44.546Z,8.00
2019-02-18T16:45:14.872Z,8.90
2019-02-18T16:47:43.319Z,9.90
2019-02-18T16:50:12.091Z,10.10
2019-02-18T16:52:40.789Z,10.80
2019-02-18T16:55:12.368Z,11.10
2019-02-18T16:57:41.051Z,11.80
2019-02-18T17:00:17.099Z,12.60
2019-02-18T17:02:45.563Z,13.10
2019-02-18T17:05:14.260Z,13.90
2019-02-18T17:07:42.979Z,14.00
2019-02-18T17:10:11.539Z,14.20
2019-02-18T17:12:39.969Z,14.80
2019-02-18T17:15:10.820Z,15.10
2019-02-18T17:17:39.243Z,15.60
2019-02-18T17:20:08.661Z,16.10
2019-02-18T17:22:37.071Z,16.50
2019-02-18T17:25:09.138Z,17.10
2019-02-18T17:27:37.558Z,17.50
2019-02-18T17:30:09.590Z,18.10
2019-02-18T17:32:38.095Z,18.80
2019-02-18T17:35:10.029Z,19.40
2019-02-18T17:37:38.592Z,19.90
2019-02-18T17:40:10.376Z,20.70
2019-02-18T17:42:38.823Z,21.20
2019-02-18T17:45:10.210Z,21.50
2019-02-18T17:47:38.638Z,22.20
2019-02-18T17:50:12.623Z,22.90
2019-02-18T17:52:41.110Z,23.40
2019-02-18T17:55:12.040Z,24.30
2019-02-18T17:57:41.005Z,24.90
2019-02-18T18:00:12.356Z,25.20
2019-02-18T18:02:40.872Z,26.00
2019-02-18T18:05:10.286Z,26.90
2019-02-18T18:07:38.808Z,27.50
2019-02-18T18:10:12.409Z,28.50
2019-02-18T18:12:40.981Z,28.60
2019-02-18T18:15:11.762Z,29.00
2019-02-18T18:17:40.213Z,30.00
2019-02-18T18:20:13.199Z,30.90
2019-02-18T18:22:41.630Z,31.70
2019-02-18T18:25:14.363Z,33.30
2019-02-18T18:27:42.883Z,34.50
2019-02-18T18:30:14.008Z,35.80
2019-02-18T18:32:42.440Z,36.60
2019-02-18T18:35:12.880Z,37.80
2019-02-18T18:37:41.476Z,38.90
2019-02-18T18:40:14.890Z,40.30
2019-02-18T18:42:43.410Z,41.00
2019-02-18T18:45:15.607Z,41.60
2019-02-18T18:47:44.120Z,43.40
2019-02-18T18:50:17.796Z,44.20
2019-02-18T18:52:46.506Z,45.20
2019-02-18T18:55:15.255Z,45.80
2019-02-18T18:57:43.917Z,47.00
2019-02-18T19:00:20.022Z,48.10
2019-02-18T19:02:48.461Z,48.20
2019-02-18T19:05:17.111Z,48.40
2019-02-18T19:07:45.601Z,48.30
2019-02-18T19:10:14.037Z,48.30
2019-02-18T19:12:42.687Z,48.60
2019-02-18T19:15:15.315Z,49.10
2019-02-18T19:17:43.758Z,49.80
2019-02-18T19:20:12.603Z,50.60
2019-02-18T19:22:41.061Z,51.90
2019-02-18T19:25:11.209Z,52.20
2019-02-18T19:27:39.885Z,52.80
2019-02-18T19:30:29.486Z,52.60
2019-02-18T19:32:58.190Z,53.00
2019-02-18T19:35:27.818Z,53.70
2019-02-18T19:37:56.504Z,54.80
2019-02-18T19:40:24.939Z,55.00
2019-02-18T19:42:53.391Z,55.80
2019-02-18T19:45:23.435Z,55.90
2019-02-18T19:47:51.934Z,57.30
2019-02-18T19:50:20.449Z,57.30
2019-02-18T19:52:48.950Z,58.10
2019-02-18T19:55:17.457Z,59.00
2019-02-18T19:57:45.900Z,59.80
2019-02-18T20:00:19.308Z,59.70
2019-02-18T20:02:48.300Z,60.20
2019-02-18T20:05:16.773Z,61.00
2019-02-18T20:07:45.225Z,61.20
2019-02-18T20:10:13.722Z,62.80
2019-02-18T20:12:42.166Z,63.00
2019-02-18T20:15:13.296Z,63.60
2019-02-18T20:17:41.731Z,63.90
2019-02-18T20:20:14.981Z,64.00
2019-02-18T20:22:43.497Z,64.20
2019-02-18T20:25:12.603Z,64.50
2019-02-18T20:27:41.042Z,64.60
2019-02-18T20:30:14.424Z,64.50
2019-02-18T20:32:42.882Z,64.40
2019-02-18T20:35:11.620Z,64.30
2019-02-18T20:37:40.308Z,64.60
2019-02-18T20:40:10.588Z,64.80
2019-02-18T20:42:39.386Z,64.70
2019-02-18T20:45:10.934Z,64.80
2019-02-18T20:47:39.379Z,65.40
2019-02-18T20:50:10.445Z,65.90
2019-02-18T20:52:38.863Z,66.90
2019-02-18T20:55:09.857Z,67.40
2019-02-18T20:57:38.695Z,68.10
2019-02-18T21:00:17.286Z,68.90
2019-02-18T21:02:46.006Z,69.00
2019-02-18T21:05:14.483Z,69.00
2019-02-18T21:07:42.904Z,69.60
2019-02-18T21:10:38.566Z,70.50
2019-02-18T21:13:07.046Z,71.00
2019-02-18T21:15:35.491Z,71.30
2019-02-18T21:18:04.007Z,71.40
2019-02-18T21:20:32.773Z,71.80
2019-02-18T21:23:01.417Z,72.40
2019-02-18T21:25:29.897Z,73.10
2019-02-18T21:27:58.299Z,73.30
2019-02-18T21:30:26.945Z,74.00
2019-02-18T21:32:55.422Z,74.50
2019-02-18T21:35:24.226Z,74.60
2019-02-18T21:37:52.952Z,74.90
2019-02-18T21:40:21.410Z,75.30
2019-02-18T21:42:50.082Z,75.70
2019-02-18T21:45:18.515Z,76.30
2019-02-18T21:47:46.926Z,77.00
2019-02-18T21:50:15.349Z,77.30
2019-02-18T21:52:43.762Z,77.20
2019-02-18T21:55:13.280Z,76.90
2019-02-18T21:57:42.007Z,76.80
2019-02-18T22:00:17.729Z,76.80
2019-02-18T22:02:46.207Z,77.10
2019-02-18T22:05:15.078Z,77.50
2019-02-18T22:07:43.587Z,77.60
2019-02-18T22:10:12.041Z,77.70
2019-02-18T22:12:40.453Z,77.80
2019-02-18T22:15:11.362Z,77.70
2019-02-18T22:17:40.079Z,77.60
2019-02-18T22:20:12.675Z,77.60
2019-02-18T22:22:41.400Z,78.10
2019-02-18T22:25:13.408Z,78.50
2019-02-18T22:28:01.210Z,79.30
2019-02-18T22:30:29.712Z,79.20
2019-02-18T22:32:58.649Z,79.80
2019-02-18T22:35:27.346Z,80.50
2019-02-18T22:37:55.797Z,80.50
2019-02-18T22:40:24.215Z,81.20
2019-02-18T22:42:52.701Z,81.40
2019-02-18T22:45:21.123Z,81.70
2019-02-18T22:47:49.551Z,81.80
2019-02-18T22:50:18.538Z,82.40
2019-02-18T22:52:47.005Z,82.70
2019-02-18T22:55:15.417Z,82.30
2019-02-18T22:57:44.117Z,83.10
2019-02-18T23:00:18.135Z,82.90
2019-02-18T23:02:46.552Z,83.40
2019-02-18T23:05:15.491Z,83.10
2019-02-18T23:07:44.128Z,83.70
2019-02-18T23:10:12.606Z,83.90
2019-02-18T23:12:41.039Z,83.90
2019-02-18T23:15:10.272Z,83.90
2019-02-18T23:17:38.689Z,84.00
2019-02-18T23:20:07.174Z,84.20
2019-02-18T23:22:35.778Z,84.70
2019-02-18T23:25:04.258Z,84.20
2019-02-18T23:27:32.906Z,84.50
2019-02-18T23:30:01.618Z,84.60
2019-02-18T23:32:30.043Z,84.60
2019-02-18T23:34:58.458Z,84.80
2019-02-18T23:37:27.100Z,84.80
2019-02-18T23:39:55.555Z,84.70
2019-02-18T23:42:23.977Z,84.80
2019-02-18T23:44:59.067Z,84.80
2019-02-18T23:47:23.054Z,85.00
2019-02-18T23:49:51.717Z,84.90
2019-02-18T23:52:20.151Z,85.10
2019-02-18T23:54:48.810Z,85.10
2019-02-18T23:57:17.481Z,85.20
2019-02-18T23:59:46.125Z,85.10
